sensor_id;sensor_type;location;lat;lon;timestamp;temperature;humidity
72126;SHT31;59999;51.676;22.650;2022-11-13T00:02:06;7.17;93.53
72126;SHT31;59999;51.676;22.650;2022-11-13T00:04:32;7.18;93.61
72126;SHT31;59999;51.676;22.650;2022-11-13T00:06:59;7.18;93.70
72126;SHT31;59999;51.676;22.650;2022-11-13T00:09:24;7.19;93.80
72126;SHT31;59999;51.676;22.650;2022-11-13T00:11:50;7.21;93.69
72126;SHT31;59999;51.676;22.650;2022-11-13T00:14:16;7.22;93.65
72126;SHT31;59999;51.676;22.650;2022-11-13T00:16:42;7.21;93.64
72126;SHT31;59999;51.676;22.650;2022-11-13T00:19:08;7.21;93.31
72126;SHT31;59999;51.676;22.650;2022-11-13T00:21:34;7.19;93.45
72126;SHT31;59999;51.676;22.650;2022-11-13T00:24:00;7.19;93.53
72126;SHT31;59999;51.676;22.650;2022-11-13T00:26:28;7.19;93.48
72126;SHT31;59999;51.676;22.650;2022-11-13T00:28:57;7.17;93.56
72126;SHT31;59999;51.676;22.650;2022-11-13T00:31:24;7.15;93.58
72126;SHT31;59999;51.676;22.650;2022-11-13T00:33:51;7.14;93.69
72126;SHT31;59999;51.676;22.650;2022-11-13T00:36:22;7.15;93.75
72126;SHT31;59999;51.676;22.650;2022-11-13T00:38:49;7.14;93.84
72126;SHT31;59999;51.676;22.650;2022-11-13T00:41:16;7.15;93.68
72126;SHT31;59999;51.676;22.650;2022-11-13T00:43:42;7.19;93.66
72126;SHT31;59999;51.676;22.650;2022-11-13T00:46:08;7.17;93.64
72126;SHT31;59999;51.676;22.650;2022-11-13T00:48:35;7.18;93.66
72126;SHT31;59999;51.676;22.650;2022-11-13T00:51:02;7.19;93.55
72126;SHT31;59999;51.676;22.650;2022-11-13T00:53:28;7.19;93.55
72126;SHT31;59999;51.676;22.650;2022-11-13T00:55:54;7.17;93.60
72126;SHT31;59999;51.676;22.650;2022-11-13T00:58:20;7.15;93.55
72126;SHT31;59999;51.676;22.650;2022-11-13T01:00:47;7.15;93.52
72126;SHT31;59999;51.676;22.650;2022-11-13T01:03:14;7.18;93.52
72126;SHT31;59999;51.676;22.650;2022-11-13T01:05:42;7.15;93.64
72126;SHT31;59999;51.676;22.650;2022-11-13T01:08:10;7.17;93.72
72126;SHT31;59999;51.676;22.650;2022-11-13T01:10:45;7.18;93.69
72126;SHT31;59999;51.676;22.650;2022-11-13T01:13:12;7.17;93.69
72126;SHT31;59999;51.676;22.650;2022-11-13T01:15:42;7.19;93.63
72126;SHT31;59999;51.676;22.650;2022-11-13T01:18:10;7.21;93.70
72126;SHT31;59999;51.676;22.650;2022-11-13T01:20:36;7.19;93.62
72126;SHT31;59999;51.676;22.650;2022-11-13T01:23:02;7.22;93.79
72126;SHT31;59999;51.676;22.650;2022-11-13T01:25:29;7.21;93.75
72126;SHT31;59999;51.676;22.650;2022-11-13T01:27:55;7.24;93.75
72126;SHT31;59999;51.676;22.650;2022-11-13T01:30:21;7.22;93.77
72126;SHT31;59999;51.676;22.650;2022-11-13T01:32:48;7.27;93.72
72126;SHT31;59999;51.676;22.650;2022-11-13T01:35:14;7.28;93.57
72126;SHT31;59999;51.676;22.650;2022-11-13T01:37:40;7.28;93.66
72126;SHT31;59999;51.676;22.650;2022-11-13T01:40:06;7.27;93.41
72126;SHT31;59999;51.676;22.650;2022-11-13T01:42:32;7.27;93.43
72126;SHT31;59999;51.676;22.650;2022-11-13T01:45:00;7.28;93.34
72126;SHT31;59999;51.676;22.650;2022-11-13T01:47:27;7.29;93.48
72126;SHT31;59999;51.676;22.650;2022-11-13T01:49:56;7.27;93.46
72126;SHT31;59999;51.676;22.650;2022-11-13T01:52:35;7.28;93.52
72126;SHT31;59999;51.676;22.650;2022-11-13T01:55:13;7.28;93.68
72126;SHT31;59999;51.676;22.650;2022-11-13T01:57:40;7.27;93.68
72126;SHT31;59999;51.676;22.650;2022-11-13T02:00:09;7.28;93.67
72126;SHT31;59999;51.676;22.650;2022-11-13T02:02:36;7.29;93.79
72126;SHT31;59999;51.676;22.650;2022-11-13T02:05:02;7.31;93.76
72126;SHT31;59999;51.676;22.650;2022-11-13T02:07:29;7.29;93.73
72126;SHT31;59999;51.676;22.650;2022-11-13T02:09:56;7.32;93.87
72126;SHT31;59999;51.676;22.650;2022-11-13T02:12:36;7.32;93.74
72126;SHT31;59999;51.676;22.650;2022-11-13T02:15:04;7.34;93.55
72126;SHT31;59999;51.676;22.650;2022-11-13T02:17:43;7.35;93.64
72126;SHT31;59999;51.676;22.650;2022-11-13T02:20:11;7.35;93.75
72126;SHT31;59999;51.676;22.650;2022-11-13T02:25:27;7.39;93.84
72126;SHT31;59999;51.676;22.650;2022-11-13T02:27:54;7.38;93.66
72126;SHT31;59999;51.676;22.650;2022-11-13T02:30:29;7.44;93.56
72126;SHT31;59999;51.676;22.650;2022-11-13T02:32:57;7.42;93.58
72126;SHT31;59999;51.676;22.650;2022-11-13T02:35:26;7.39;93.65
72126;SHT31;59999;51.676;22.650;2022-11-13T02:37:55;7.42;93.63
72126;SHT31;59999;51.676;22.650;2022-11-13T02:40:22;7.39;93.68
72126;SHT31;59999;51.676;22.650;2022-11-13T02:42:48;7.38;93.64
72126;SHT31;59999;51.676;22.650;2022-11-13T02:45:15;7.38;93.64
72126;SHT31;59999;51.676;22.650;2022-11-13T02:47:41;7.39;93.65
72126;SHT31;59999;51.676;22.650;2022-11-13T02:50:08;7.38;93.63
72126;SHT31;59999;51.676;22.650;2022-11-13T02:52:35;7.38;93.70
72126;SHT31;59999;51.676;22.650;2022-11-13T02:55:03;7.39;93.66
72126;SHT31;59999;51.676;22.650;2022-11-13T02:57:29;7.38;93.44
72126;SHT31;59999;51.676;22.650;2022-11-13T02:59:55;7.36;93.35
72126;SHT31;59999;51.676;22.650;2022-11-13T03:02:21;7.34;93.38
72126;SHT31;59999;51.676;22.650;2022-11-13T03:04:47;7.34;93.57
72126;SHT31;59999;51.676;22.650;2022-11-13T03:07:13;7.34;93.58
72126;SHT31;59999;51.676;22.650;2022-11-13T03:09:40;7.32;93.59
72126;SHT31;59999;51.676;22.650;2022-11-13T03:12:07;7.31;93.43
72126;SHT31;59999;51.676;22.650;2022-11-13T03:14:34;7.28;93.52
72126;SHT31;59999;51.676;22.650;2022-11-13T03:16:59;7.28;93.56
72126;SHT31;59999;51.676;22.650;2022-11-13T03:19:25;7.28;93.66
72126;SHT31;59999;51.676;22.650;2022-11-13T03:21:52;7.27;93.70
72126;SHT31;59999;51.676;22.650;2022-11-13T03:24:17;7.27;93.69
72126;SHT31;59999;51.676;22.650;2022-11-13T03:26:43;7.28;93.79
72126;SHT31;59999;51.676;22.650;2022-11-13T03:29:09;7.27;93.78
72126;SHT31;59999;51.676;22.650;2022-11-13T03:31:35;7.27;93.70
72126;SHT31;59999;51.676;22.650;2022-11-13T03:34:01;7.27;93.88
72126;SHT31;59999;51.676;22.650;2022-11-13T03:36:27;7.27;93.84
72126;SHT31;59999;51.676;22.650;2022-11-13T03:38:53;7.25;93.74
72126;SHT31;59999;51.676;22.650;2022-11-13T03:41:21;7.24;93.80
72126;SHT31;59999;51.676;22.650;2022-11-13T03:43:47;7.27;93.84
72126;SHT31;59999;51.676;22.650;2022-11-13T03:46:13;7.28;93.84
72126;SHT31;59999;51.676;22.650;2022-11-13T03:48:39;7.24;93.77
72126;SHT31;59999;51.676;22.650;2022-11-13T03:51:05;7.29;93.71
72126;SHT31;59999;51.676;22.650;2022-11-13T03:53:31;7.29;93.87
72126;SHT31;59999;51.676;22.650;2022-11-13T03:55:58;7.31;93.79
72126;SHT31;59999;51.676;22.650;2022-11-13T03:58:24;7.27;93.78
72126;SHT31;59999;51.676;22.650;2022-11-13T04:00:50;7.31;93.81
72126;SHT31;59999;51.676;22.650;2022-11-13T04:03:18;7.29;93.77
72126;SHT31;59999;51.676;22.650;2022-11-13T04:05:47;7.28;93.67
72126;SHT31;59999;51.676;22.650;2022-11-13T04:08:14;7.28;93.78
72126;SHT31;59999;51.676;22.650;2022-11-13T04:10:40;7.28;93.71
72126;SHT31;59999;51.676;22.650;2022-11-13T04:13:07;7.29;93.77
72126;SHT31;59999;51.676;22.650;2022-11-13T04:15:33;7.28;93.81
72126;SHT31;59999;51.676;22.650;2022-11-13T04:17:59;7.28;93.78
72126;SHT31;59999;51.676;22.650;2022-11-13T04:20:25;7.31;93.82
72126;SHT31;59999;51.676;22.650;2022-11-13T04:22:53;7.28;93.82
72126;SHT31;59999;51.676;22.650;2022-11-13T04:25:20;7.31;93.74
72126;SHT31;59999;51.676;22.650;2022-11-13T04:27:48;7.29;93.73
72126;SHT31;59999;51.676;22.650;2022-11-13T04:30:14;7.29;93.80
72126;SHT31;59999;51.676;22.650;2022-11-13T04:32:40;7.31;93.89
72126;SHT31;59999;51.676;22.650;2022-11-13T04:35:06;7.29;93.84
72126;SHT31;59999;51.676;22.650;2022-11-13T04:37:32;7.31;93.93
72126;SHT31;59999;51.676;22.650;2022-11-13T04:39:59;7.32;93.89
72126;SHT31;59999;51.676;22.650;2022-11-13T04:42:24;7.32;93.73
72126;SHT31;59999;51.676;22.650;2022-11-13T04:45:09;7.31;93.74
72126;SHT31;59999;51.676;22.650;2022-11-13T04:47:35;7.31;93.84
72126;SHT31;59999;51.676;22.650;2022-11-13T04:50:02;7.29;93.87
72126;SHT31;59999;51.676;22.650;2022-11-13T04:52:28;7.28;93.84
72126;SHT31;59999;51.676;22.650;2022-11-13T04:54:54;7.31;93.78
72126;SHT31;59999;51.676;22.650;2022-11-13T04:57:20;7.29;93.79
72126;SHT31;59999;51.676;22.650;2022-11-13T04:59:46;7.31;93.76
72126;SHT31;59999;51.676;22.650;2022-11-13T05:02:12;7.31;93.77
72126;SHT31;59999;51.676;22.650;2022-11-13T05:04:38;7.32;93.90
72126;SHT31;59999;51.676;22.650;2022-11-13T05:07:04;7.31;93.87
72126;SHT31;59999;51.676;22.650;2022-11-13T05:09:30;7.34;94.02
72126;SHT31;59999;51.676;22.650;2022-11-13T05:11:56;7.34;94.03
72126;SHT31;59999;51.676;22.650;2022-11-13T05:14:22;7.32;94.03
72126;SHT31;59999;51.676;22.650;2022-11-13T05:16:47;7.36;93.97
72126;SHT31;59999;51.676;22.650;2022-11-13T05:19:15;7.34;93.93
72126;SHT31;59999;51.676;22.650;2022-11-13T05:21:41;7.36;93.93
72126;SHT31;59999;51.676;22.650;2022-11-13T05:24:09;7.38;93.96
72126;SHT31;59999;51.676;22.650;2022-11-13T05:26:37;7.39;93.74
72126;SHT31;59999;51.676;22.650;2022-11-13T05:29:04;7.38;93.72
72126;SHT31;59999;51.676;22.650;2022-11-13T05:31:30;7.36;93.70
72126;SHT31;59999;51.676;22.650;2022-11-13T05:33:56;7.36;93.83
72126;SHT31;59999;51.676;22.650;2022-11-13T05:36:22;7.38;93.84
72126;SHT31;59999;51.676;22.650;2022-11-13T05:38:49;7.39;94.11
72126;SHT31;59999;51.676;22.650;2022-11-13T05:41:17;7.39;93.89
72126;SHT31;59999;51.676;22.650;2022-11-13T05:43:44;7.42;93.90
72126;SHT31;59999;51.676;22.650;2022-11-13T05:46:13;7.41;93.98
72126;SHT31;59999;51.676;22.650;2022-11-13T05:48:39;7.44;93.96
72126;SHT31;59999;51.676;22.650;2022-11-13T05:51:17;7.45;93.87
72126;SHT31;59999;51.676;22.650;2022-11-13T05:53:44;7.51;93.95
72126;SHT31;59999;51.676;22.650;2022-11-13T05:56:12;7.49;93.85
72126;SHT31;59999;51.676;22.650;2022-11-13T05:58:40;7.54;93.99
72126;SHT31;59999;51.676;22.650;2022-11-13T06:01:28;7.55;93.89
72126;SHT31;59999;51.676;22.650;2022-11-13T06:03:55;7.58;93.84
72126;SHT31;59999;51.676;22.650;2022-11-13T06:06:23;7.59;93.71
72126;SHT31;59999;51.676;22.650;2022-11-13T06:08:50;7.61;93.66
72126;SHT31;59999;51.676;22.650;2022-11-13T06:11:20;7.61;93.49
72126;SHT31;59999;51.676;22.650;2022-11-13T06:13:47;7.61;93.49
72126;SHT31;59999;51.676;22.650;2022-11-13T06:16:15;7.61;93.31
72126;SHT31;59999;51.676;22.650;2022-11-13T06:18:43;7.61;93.36
72126;SHT31;59999;51.676;22.650;2022-11-13T06:21:19;7.62;93.47
72126;SHT31;59999;51.676;22.650;2022-11-13T06:23:45;7.63;93.48
72126;SHT31;59999;51.676;22.650;2022-11-13T06:26:17;7.67;93.34
72126;SHT31;59999;51.676;22.650;2022-11-13T06:28:43;7.67;93.35
72126;SHT31;59999;51.676;22.650;2022-11-13T06:31:11;7.69;93.13
72126;SHT31;59999;51.676;22.650;2022-11-13T06:33:39;7.72;93.36
72126;SHT31;59999;51.676;22.650;2022-11-13T06:36:09;7.75;93.38
72126;SHT31;59999;51.676;22.650;2022-11-13T06:38:36;7.76;93.42
72126;SHT31;59999;51.676;22.650;2022-11-13T06:41:04;7.82;93.55
72126;SHT31;59999;51.676;22.650;2022-11-13T06:43:31;7.84;93.35
72126;SHT31;59999;51.676;22.650;2022-11-13T06:45:57;7.90;92.99
72126;SHT31;59999;51.676;22.650;2022-11-13T06:48:24;7.87;92.67
72126;SHT31;59999;51.676;22.650;2022-11-13T06:50:50;7.89;92.89
72126;SHT31;59999;51.676;22.650;2022-11-13T06:53:16;7.93;92.72
72126;SHT31;59999;51.676;22.650;2022-11-13T06:55:47;7.93;92.66
72126;SHT31;59999;51.676;22.650;2022-11-13T06:58:15;7.93;92.67
72126;SHT31;59999;51.676;22.650;2022-11-13T07:00:42;7.93;92.65
72126;SHT31;59999;51.676;22.650;2022-11-13T07:03:23;7.94;92.38
72126;SHT31;59999;51.676;22.650;2022-11-13T07:05:50;7.93;92.40
72126;SHT31;59999;51.676;22.650;2022-11-13T07:08:16;7.91;92.53
72126;SHT31;59999;51.676;22.650;2022-11-13T07:10:43;7.93;92.48
72126;SHT31;59999;51.676;22.650;2022-11-13T07:13:09;7.94;92.27
72126;SHT31;59999;51.676;22.650;2022-11-13T07:15:36;7.96;92.56
72126;SHT31;59999;51.676;22.650;2022-11-13T07:18:03;7.98;92.47
72126;SHT31;59999;51.676;22.650;2022-11-13T07:20:29;8.01;92.39
72126;SHT31;59999;51.676;22.650;2022-11-13T07:22:56;8.00;92.52
72126;SHT31;59999;51.676;22.650;2022-11-13T07:25:23;8.03;92.32
72126;SHT31;59999;51.676;22.650;2022-11-13T07:27:49;7.98;92.69
72126;SHT31;59999;51.676;22.650;2022-11-13T07:30:15;8.07;92.88
72126;SHT31;59999;51.676;22.650;2022-11-13T07:32:42;8.10;92.58
72126;SHT31;59999;51.676;22.650;2022-11-13T07:35:11;8.04;92.41
72126;SHT31;59999;51.676;22.650;2022-11-13T07:37:37;8.05;92.85
72126;SHT31;59999;51.676;22.650;2022-11-13T07:40:04;8.04;92.50
72126;SHT31;59999;51.676;22.650;2022-11-13T07:42:30;8.11;92.87
72126;SHT31;59999;51.676;22.650;2022-11-13T07:44:56;8.17;92.15
72126;SHT31;59999;51.676;22.650;2022-11-13T07:47:23;8.20;92.21
72126;SHT31;59999;51.676;22.650;2022-11-13T07:49:49;8.20;92.10
72126;SHT31;59999;51.676;22.650;2022-11-13T07:52:15;8.21;91.94
72126;SHT31;59999;51.676;22.650;2022-11-13T07:54:41;8.27;92.28
72126;SHT31;59999;51.676;22.650;2022-11-13T07:57:08;8.27;91.78
72126;SHT31;59999;51.676;22.650;2022-11-13T07:59:34;8.28;91.88
72126;SHT31;59999;51.676;22.650;2022-11-13T08:02:02;8.35;92.30
72126;SHT31;59999;51.676;22.650;2022-11-13T08:04:29;8.38;91.61
72126;SHT31;59999;51.676;22.650;2022-11-13T08:06:55;8.37;91.20
72126;SHT31;59999;51.676;22.650;2022-11-13T08:09:21;8.40;91.57
72126;SHT31;59999;51.676;22.650;2022-11-13T08:11:47;8.42;91.70
72126;SHT31;59999;51.676;22.650;2022-11-13T08:14:13;8.45;91.45
72126;SHT31;59999;51.676;22.650;2022-11-13T08:16:39;8.51;91.68
72126;SHT31;59999;51.676;22.650;2022-11-13T08:19:05;8.56;91.76
72126;SHT31;59999;51.676;22.650;2022-11-13T08:21:31;8.61;91.53
72126;SHT31;59999;51.676;22.650;2022-11-13T08:23:59;8.69;91.37
72126;SHT31;59999;51.676;22.650;2022-11-13T08:26:25;8.72;91.40
72126;SHT31;59999;51.676;22.650;2022-11-13T08:28:51;8.73;91.14
72126;SHT31;59999;51.676;22.650;2022-11-13T08:31:17;8.79;91.23
72126;SHT31;59999;51.676;22.650;2022-11-13T08:33:43;8.75;90.82
72126;SHT31;59999;51.676;22.650;2022-11-13T08:36:09;8.76;91.02
72126;SHT31;59999;51.676;22.650;2022-11-13T08:38:36;8.80;91.04
72126;SHT31;59999;51.676;22.650;2022-11-13T08:41:04;8.79;90.13
72126;SHT31;59999;51.676;22.650;2022-11-13T08:43:30;8.80;90.64
72126;SHT31;59999;51.676;22.650;2022-11-13T08:45:57;8.79;90.11
72126;SHT31;59999;51.676;22.650;2022-11-13T08:48:23;8.79;90.50
72126;SHT31;59999;51.676;22.650;2022-11-13T08:50:51;8.73;90.22
72126;SHT31;59999;51.676;22.650;2022-11-13T08:53:17;8.72;90.37
72126;SHT31;59999;51.676;22.650;2022-11-13T08:55:44;8.69;90.94
72126;SHT31;59999;51.676;22.650;2022-11-13T08:58:09;8.71;90.43
72126;SHT31;59999;51.676;22.650;2022-11-13T09:00:36;8.66;90.66
72126;SHT31;59999;51.676;22.650;2022-11-13T09:03:03;8.62;90.78
72126;SHT31;59999;51.676;22.650;2022-11-13T09:05:29;8.61;90.72
72126;SHT31;59999;51.676;22.650;2022-11-13T09:07:59;8.59;91.12
72126;SHT31;59999;51.676;22.650;2022-11-13T09:10:26;8.58;90.93
72126;SHT31;59999;51.676;22.650;2022-11-13T09:12:57;8.52;90.70
72126;SHT31;59999;51.676;22.650;2022-11-13T09:15:23;8.51;90.91
72126;SHT31;59999;51.676;22.650;2022-11-13T09:17:49;8.49;90.88
72126;SHT31;59999;51.676;22.650;2022-11-13T09:20:15;8.46;91.19
72126;SHT31;59999;51.676;22.650;2022-11-13T09:22:42;8.46;91.40
72126;SHT31;59999;51.676;22.650;2022-11-13T09:25:08;8.49;91.15
72126;SHT31;59999;51.676;22.650;2022-11-13T09:27:34;8.49;91.35
72126;SHT31;59999;51.676;22.650;2022-11-13T09:30:00;8.52;91.65
72126;SHT31;59999;51.676;22.650;2022-11-13T09:32:26;8.59;91.52
72126;SHT31;59999;51.676;22.650;2022-11-13T09:34:52;8.61;91.40
72126;SHT31;59999;51.676;22.650;2022-11-13T09:37:18;8.63;91.04
72126;SHT31;59999;51.676;22.650;2022-11-13T09:39:43;8.62;91.20
72126;SHT31;59999;51.676;22.650;2022-11-13T09:47:16;8.65;90.87
72126;SHT31;59999;51.676;22.650;2022-11-13T09:50:19;8.65;91.03
72126;SHT31;59999;51.676;22.650;2022-11-13T09:52:47;8.65;91.42
72126;SHT31;59999;51.676;22.650;2022-11-13T09:55:21;8.71;91.28
72126;SHT31;59999;51.676;22.650;2022-11-13T09:58:04;8.71;90.73
72126;SHT31;59999;51.676;22.650;2022-11-13T10:00:33;8.72;90.60
72126;SHT31;59999;51.676;22.650;2022-11-13T10:06:17;8.79;90.92
72126;SHT31;59999;51.676;22.650;2022-11-13T10:08:54;8.79;90.71
72126;SHT31;59999;51.676;22.650;2022-11-13T10:11:44;8.80;90.88
72126;SHT31;59999;51.676;22.650;2022-11-13T10:14:22;8.80;90.55
72126;SHT31;59999;51.676;22.650;2022-11-13T10:16:53;8.80;90.65
72126;SHT31;59999;51.676;22.650;2022-11-13T10:22:36;8.73;90.92
72126;SHT31;59999;51.676;22.650;2022-11-13T10:25:11;8.72;91.01
72126;SHT31;59999;51.676;22.650;2022-11-13T10:27:38;8.76;91.05
72126;SHT31;59999;51.676;22.650;2022-11-13T10:30:12;8.77;90.84
72126;SHT31;59999;51.676;22.650;2022-11-13T10:32:40;8.79;90.54
72126;SHT31;59999;51.676;22.650;2022-11-13T10:38:07;8.83;90.64
72126;SHT31;59999;51.676;22.650;2022-11-13T10:40:37;8.87;90.46
72126;SHT31;59999;51.676;22.650;2022-11-13T10:43:13;8.92;90.62
72126;SHT31;59999;51.676;22.650;2022-11-13T10:45:41;8.94;89.98
72126;SHT31;59999;51.676;22.650;2022-11-13T10:48:19;8.97;90.58
72126;SHT31;59999;51.676;22.650;2022-11-13T10:50:53;9.03;90.40
72126;SHT31;59999;51.676;22.650;2022-11-13T10:53:20;9.03;89.80
72126;SHT31;59999;51.676;22.650;2022-11-13T10:55:49;9.04;89.91
72126;SHT31;59999;51.676;22.650;2022-11-13T10:58:17;9.10;90.05
72126;SHT31;59999;51.676;22.650;2022-11-13T11:00:45;9.13;90.06
72126;SHT31;59999;51.676;22.650;2022-11-13T11:06:01;9.13;89.61
72126;SHT31;59999;51.676;22.650;2022-11-13T11:08:32;9.10;89.38
72126;SHT31;59999;51.676;22.650;2022-11-13T11:11:06;9.06;89.13
72126;SHT31;59999;51.676;22.650;2022-11-13T11:13:51;9.00;89.59
72126;SHT31;59999;51.676;22.650;2022-11-13T11:16:22;9.06;90.21
72126;SHT31;59999;51.676;22.650;2022-11-13T11:19:00;9.06;90.19
72126;SHT31;59999;51.676;22.650;2022-11-13T11:21:31;9.07;90.24
72126;SHT31;59999;51.676;22.650;2022-11-13T11:24:08;9.09;90.01
72126;SHT31;59999;51.676;22.650;2022-11-13T11:26:55;9.09;90.35
72126;SHT31;59999;51.676;22.650;2022-11-13T11:29:33;9.10;90.22
72126;SHT31;59999;51.676;22.650;2022-11-13T11:34:44;9.03;89.95
72126;SHT31;59999;51.676;22.650;2022-11-13T11:37:14;8.99;89.81
72126;SHT31;59999;51.676;22.650;2022-11-13T11:40:02;9.02;90.22
72126;SHT31;59999;51.676;22.650;2022-11-13T11:42:31;9.02;90.26
72126;SHT31;59999;51.676;22.650;2022-11-13T11:45:25;9.00;90.47
72126;SHT31;59999;51.676;22.650;2022-11-13T11:47:52;9.03;90.42
72126;SHT31;59999;51.676;22.650;2022-11-13T11:50:38;9.09;90.45
72126;SHT31;59999;51.676;22.650;2022-11-13T11:58:46;9.07;90.02
72126;SHT31;59999;51.676;22.650;2022-11-13T12:01:34;9.07;90.33
72126;SHT31;59999;51.676;22.650;2022-11-13T12:04:50;9.07;90.55
72126;SHT31;59999;51.676;22.650;2022-11-13T12:18:41;9.07;89.98
72126;SHT31;59999;51.676;22.650;2022-11-13T12:21:23;9.03;90.27
72126;SHT31;59999;51.676;22.650;2022-11-13T12:26:52;8.99;90.52
72126;SHT31;59999;51.676;22.650;2022-11-13T12:34:53;8.93;90.84
72126;SHT31;59999;51.676;22.650;2022-11-13T12:37:38;8.90;90.96
72126;SHT31;59999;51.676;22.650;2022-11-13T12:43:24;8.83;91.06
72126;SHT31;59999;51.676;22.650;2022-11-13T12:45:53;8.80;91.22
72126;SHT31;59999;51.676;22.650;2022-11-13T12:48:32;8.79;91.41
72126;SHT31;59999;51.676;22.650;2022-11-13T12:51:03;8.76;91.41
72126;SHT31;59999;51.676;22.650;2022-11-13T12:58:57;8.77;91.72
72126;SHT31;59999;51.676;22.650;2022-11-13T13:01:26;8.79;91.46
72126;SHT31;59999;51.676;22.650;2022-11-13T13:07:16;8.80;91.62
72126;SHT31;59999;51.676;22.650;2022-11-13T13:17:33;8.80;91.51
72126;SHT31;59999;51.676;22.650;2022-11-13T13:20:34;8.82;91.50
72126;SHT31;59999;51.676;22.650;2022-11-13T13:22:58;8.83;91.45
72126;SHT31;59999;51.676;22.650;2022-11-13T13:25:26;8.83;91.40
72126;SHT31;59999;51.676;22.650;2022-11-13T13:28:01;8.84;91.54
72126;SHT31;59999;51.676;22.650;2022-11-13T13:30:31;8.86;91.36
72126;SHT31;59999;51.676;22.650;2022-11-13T13:33:33;8.84;91.43
72126;SHT31;59999;51.676;22.650;2022-11-13T13:39:01;8.82;91.55
72126;SHT31;59999;51.676;22.650;2022-11-13T13:44:25;8.87;91.73
72126;SHT31;59999;51.676;22.650;2022-11-13T13:46:56;8.90;91.52
72126;SHT31;59999;51.676;22.650;2022-11-13T13:49:24;8.90;91.63
72126;SHT31;59999;51.676;22.650;2022-11-13T13:51:54;8.90;91.61
72126;SHT31;59999;51.676;22.650;2022-11-13T13:54:26;8.90;91.49
72126;SHT31;59999;51.676;22.650;2022-11-13T13:56:53;8.89;91.43
72126;SHT31;59999;51.676;22.650;2022-11-13T13:59:29;8.87;91.45
72126;SHT31;59999;51.676;22.650;2022-11-13T14:01:58;8.87;91.38
72126;SHT31;59999;51.676;22.650;2022-11-13T14:04:28;8.87;91.59
72126;SHT31;59999;51.676;22.650;2022-11-13T14:06:59;8.87;91.71
72126;SHT31;59999;51.676;22.650;2022-11-13T14:09:27;8.84;91.69
72126;SHT31;59999;51.676;22.650;2022-11-13T14:12:02;8.87;91.74
72126;SHT31;59999;51.676;22.650;2022-11-13T14:14:28;8.87;91.69
72126;SHT31;59999;51.676;22.650;2022-11-13T14:16:56;8.90;91.66
72126;SHT31;59999;51.676;22.650;2022-11-13T14:19:23;8.92;91.64
72126;SHT31;59999;51.676;22.650;2022-11-13T14:21:52;8.93;91.66
72126;SHT31;59999;51.676;22.650;2022-11-13T14:24:20;8.92;91.63
72126;SHT31;59999;51.676;22.650;2022-11-13T14:26:48;8.96;91.48
72126;SHT31;59999;51.676;22.650;2022-11-13T14:29:34;8.93;91.67
72126;SHT31;59999;51.676;22.650;2022-11-13T14:32:05;8.93;91.44
72126;SHT31;59999;51.676;22.650;2022-11-13T14:34:35;8.89;91.64
72126;SHT31;59999;51.676;22.650;2022-11-13T14:37:24;8.84;91.78
72126;SHT31;59999;51.676;22.650;2022-11-13T14:39:52;8.84;91.93
72126;SHT31;59999;51.676;22.650;2022-11-13T14:44:46;8.87;91.86
72126;SHT31;59999;51.676;22.650;2022-11-13T14:47:30;8.84;91.71
72126;SHT31;59999;51.676;22.650;2022-11-13T14:50:19;8.82;91.94
72126;SHT31;59999;51.676;22.650;2022-11-13T14:53:02;8.80;92.08
72126;SHT31;59999;51.676;22.650;2022-11-13T14:55:31;8.84;92.17
72126;SHT31;59999;51.676;22.650;2022-11-13T14:57:59;8.84;92.09
72126;SHT31;59999;51.676;22.650;2022-11-13T15:00:28;8.87;92.17
72126;SHT31;59999;51.676;22.650;2022-11-13T15:02:54;8.89;92.04
72126;SHT31;59999;51.676;22.650;2022-11-13T15:05:20;8.90;92.02
72126;SHT31;59999;51.676;22.650;2022-11-13T15:07:47;8.93;91.96
72126;SHT31;59999;51.676;22.650;2022-11-13T15:10:18;8.96;91.84
72126;SHT31;59999;51.676;22.650;2022-11-13T15:12:44;8.97;91.79
72126;SHT31;59999;51.676;22.650;2022-11-13T15:15:16;8.97;91.69
72126;SHT31;59999;51.676;22.650;2022-11-13T15:17:44;9.00;91.73
72126;SHT31;59999;51.676;22.650;2022-11-13T15:20:20;9.03;91.79
72126;SHT31;59999;51.676;22.650;2022-11-13T15:22:47;9.02;91.58
72126;SHT31;59999;51.676;22.650;2022-11-13T15:25:16;9.03;91.56
72126;SHT31;59999;51.676;22.650;2022-11-13T15:27:42;9.03;91.55
72126;SHT31;59999;51.676;22.650;2022-11-13T15:30:09;9.02;91.58
72126;SHT31;59999;51.676;22.650;2022-11-13T15:32:35;9.00;91.61
72126;SHT31;59999;51.676;22.650;2022-11-13T15:35:03;9.00;91.56
72126;SHT31;59999;51.676;22.650;2022-11-13T15:37:29;9.00;91.47
72126;SHT31;59999;51.676;22.650;2022-11-13T15:39:55;9.00;91.56
72126;SHT31;59999;51.676;22.650;2022-11-13T15:42:29;8.99;91.60
72126;SHT31;59999;51.676;22.650;2022-11-13T15:44:56;9.03;91.57
72126;SHT31;59999;51.676;22.650;2022-11-13T15:47:30;9.02;91.61
72126;SHT31;59999;51.676;22.650;2022-11-13T15:49:57;9.00;91.49
72126;SHT31;59999;51.676;22.650;2022-11-13T15:52:25;9.03;91.55
72126;SHT31;59999;51.676;22.650;2022-11-13T15:54:54;9.03;91.35
72126;SHT31;59999;51.676;22.650;2022-11-13T15:57:26;9.04;91.39
72126;SHT31;59999;51.676;22.650;2022-11-13T15:59:52;9.02;91.24
72126;SHT31;59999;51.676;22.650;2022-11-13T16:02:18;8.97;91.39
72126;SHT31;59999;51.676;22.650;2022-11-13T16:04:44;8.97;91.60
72126;SHT31;59999;51.676;22.650;2022-11-13T16:07:17;9.00;91.74
72126;SHT31;59999;51.676;22.650;2022-11-13T16:09:43;9.00;91.69
72126;SHT31;59999;51.676;22.650;2022-11-13T16:12:11;9.00;91.83
72126;SHT31;59999;51.676;22.650;2022-11-13T16:14:37;8.99;91.80
72126;SHT31;59999;51.676;22.650;2022-11-13T16:17:11;9.03;91.83
72126;SHT31;59999;51.676;22.650;2022-11-13T16:19:39;9.02;91.66
72126;SHT31;59999;51.676;22.650;2022-11-13T16:22:16;9.02;91.74
72126;SHT31;59999;51.676;22.650;2022-11-13T16:24:42;8.99;91.59
72126;SHT31;59999;51.676;22.650;2022-11-13T16:27:13;9.02;91.62
72126;SHT31;59999;51.676;22.650;2022-11-13T16:29:39;8.96;91.67
72126;SHT31;59999;51.676;22.650;2022-11-13T16:32:17;8.94;91.80
72126;SHT31;59999;51.676;22.650;2022-11-13T16:34:44;8.93;91.92
72126;SHT31;59999;51.676;22.650;2022-11-13T16:37:16;8.97;91.95
72126;SHT31;59999;51.676;22.650;2022-11-13T16:39:43;8.94;91.95
72126;SHT31;59999;51.676;22.650;2022-11-13T16:42:11;8.92;91.96
72126;SHT31;59999;51.676;22.650;2022-11-13T16:44:38;8.89;92.00
72126;SHT31;59999;51.676;22.650;2022-11-13T16:47:24;8.92;92.29
72126;SHT31;59999;51.676;22.650;2022-11-13T16:49:51;8.92;92.29
72126;SHT31;59999;51.676;22.650;2022-11-13T16:52:17;8.93;92.30
72126;SHT31;59999;51.676;22.650;2022-11-13T16:54:43;8.94;92.31
72126;SHT31;59999;51.676;22.650;2022-11-13T16:57:11;8.96;92.21
72126;SHT31;59999;51.676;22.650;2022-11-13T16:59:38;8.94;92.27